createdAt,value
2023-03-27T09:18:08.972Z,23.00
2023-03-27T09:18:20.202Z,23.00
2023-03-27T09:18:30.493Z,23.00
2023-03-27T09:18:40.732Z,23.01
2023-03-27T09:18:51.029Z,23.01
2023-03-27T09:19:01.285Z,23.00
2023-03-27T09:19:11.538Z,23.00
2023-03-27T09:19:21.779Z,23.00
2023-03-27T09:19:32.047Z,23.02
2023-03-27T09:19:42.339Z,23.00
2023-03-27T09:19:52.607Z,23.00
2023-03-27T09:20:02.832Z,22.97
2023-03-27T09:20:13.089Z,23.00
2023-03-27T09:20:23.358Z,23.01
2023-03-27T09:20:33.598Z,23.04
2023-03-27T09:20:43.882Z,23.07
2023-03-27T09:20:54.165Z,23.07
2023-03-27T09:21:04.419Z,23.04
2023-03-27T09:21:14.671Z,23.02
2023-03-27T09:21:24.924Z,23.01
2023-03-27T09:21:35.207Z,22.97
2023-03-27T09:21:45.520Z,22.94
2023-03-27T09:21:55.769Z,22.91
2023-03-27T09:22:05.974Z,22.88
2023-03-27T09:22:16.218Z,22.88
2023-03-27T09:22:26.521Z,22.86
2023-03-27T09:22:36.733Z,22.83
2023-03-27T09:22:46.989Z,22.85
2023-03-27T09:22:57.219Z,22.83
2023-03-27T09:23:07.496Z,22.82
2023-03-27T09:23:19.805Z,22.82
2023-03-27T09:23:28.081Z,22.79
2023-03-27T09:23:38.323Z,22.80
2023-03-27T09:23:48.595Z,22.79
2023-03-27T09:23:58.861Z,22.79
2023-03-27T09:24:42.956Z,22.68
2023-03-27T09:24:54.088Z,22.72
2023-03-27T09:25:04.314Z,22.68
2023-03-27T09:25:14.509Z,22.67
2023-03-27T09:25:24.722Z,22.65
2023-03-27T09:25:34.909Z,22.65
2023-03-27T09:25:45.175Z,22.65
2023-03-27T09:25:55.655Z,22.64
2023-03-27T09:26:05.715Z,22.64
2023-03-27T09:26:15.935Z,22.61
2023-03-27T09:26:26.169Z,22.61
2023-03-27T09:26:36.377Z,22.61
2023-03-27T09:26:52.672Z,22.61
2023-03-27T09:27:07.221Z,22.61
2023-03-27T09:27:13.288Z,22.60
2023-03-27T09:27:23.482Z,22.60
2023-03-27T09:27:33.686Z,22.61
2023-03-27T09:27:43.921Z,22.60
2023-03-27T09:27:54.151Z,22.60
2023-03-27T09:28:04.363Z,22.60
2023-03-27T09:28:14.621Z,22.58
2023-03-27T09:28:24.861Z,22.60
2023-03-27T09:28:35.101Z,22.60
2023-03-27T09:28:46.881Z,22.60
2023-03-27T09:28:55.691Z,22.60
2023-03-27T09:29:05.921Z,22.60
2023-03-27T09:29:19.879Z,22.60
2023-03-27T09:29:26.461Z,22.58
2023-03-27T09:29:36.691Z,22.60
2023-03-27T09:29:46.935Z,22.60
2023-03-27T09:30:05.651Z,22.58
2023-03-27T09:30:11.455Z,22.60
2023-03-27T09:30:18.030Z,22.60
2023-03-27T09:30:28.217Z,22.62
2023-03-27T09:30:38.465Z,22.62
2023-03-27T09:30:48.702Z,22.64
2023-03-27T09:30:58.977Z,22.64
2023-03-27T09:31:19.415Z,22.67
2023-03-27T09:31:29.728Z,22.67
2023-03-27T09:31:39.962Z,22.67
2023-03-27T09:31:50.367Z,22.70
2023-03-27T09:32:00.435Z,22.70
2023-03-27T09:32:10.703Z,22.70
2023-03-27T09:32:21.072Z,22.68
2023-03-27T09:32:33.605Z,22.68
2023-03-27T09:32:41.538Z,22.68
2023-03-27T09:32:51.849Z,22.68
2023-03-27T09:33:02.138Z,22.67
2023-03-27T09:33:12.414Z,22.65
2023-03-27T09:33:22.648Z,22.67
2023-03-27T09:33:32.900Z,22.65
2023-03-27T09:33:43.129Z,22.64
2023-03-27T09:33:53.332Z,22.65
2023-03-27T09:34:03.536Z,22.65
2023-03-27T09:34:13.801Z,22.67
2023-03-27T09:34:23.968Z,22.67
2023-03-27T09:34:34.360Z,22.67
2023-03-27T09:34:44.580Z,22.67
2023-03-27T09:34:54.828Z,22.65
2023-03-27T09:35:05.065Z,22.67
2023-03-27T09:35:15.288Z,22.68
2023-03-27T09:57:11.532Z,23.31
2023-03-27T09:57:22.743Z,23.39
2023-03-27T09:57:32.974Z,23.48
2023-03-27T09:57:43.212Z,23.57
2023-03-27T09:57:53.448Z,23.63
2023-03-27T09:58:03.569Z,23.69
2023-03-27T10:11:11.176Z,24.61
2023-03-27T10:11:22.352Z,24.64
2023-03-27T10:11:32.595Z,24.65
2023-03-27T10:11:42.823Z,24.67
2023-03-27T10:11:53.037Z,24.65
2023-03-27T10:12:03.260Z,24.67
2023-03-27T10:12:13.486Z,24.67
2023-03-27T10:12:23.712Z,24.65
2023-03-27T10:12:34.001Z,24.65
2023-03-27T10:12:44.219Z,24.65
2023-03-27T10:12:54.454Z,24.65
2023-03-27T10:13:04.681Z,24.65
2023-03-27T10:13:14.911Z,24.67
2023-03-27T10:13:25.145Z,24.65
2023-03-27T10:13:35.396Z,24.64
2023-03-27T10:13:45.625Z,24.65
2023-03-27T10:13:55.876Z,24.64
2023-03-27T10:14:06.088Z,24.67
2023-03-27T10:14:16.365Z,24.67
2023-03-27T10:14:47.585Z,24.65
2023-03-27T10:14:58.786Z,24.65
2023-03-27T10:15:09.024Z,24.65
2023-03-27T10:15:19.307Z,24.65
2023-03-27T10:15:36.771Z,24.67
2023-03-27T10:15:47.926Z,24.67
2023-03-27T10:15:58.238Z,24.68
2023-03-27T10:16:08.552Z,24.67
2023-03-27T10:16:18.812Z,24.67
2023-03-27T10:16:29.014Z,24.68
2023-03-27T10:16:39.362Z,24.67
2023-03-27T10:16:49.631Z,24.68
2023-03-27T10:16:59.943Z,24.67
2023-03-27T10:17:10.199Z,24.67
2023-03-27T10:17:20.444Z,24.68
2023-03-27T10:17:30.699Z,24.68
2023-03-27T10:17:41.007Z,24.68
2023-03-27T10:17:51.292Z,24.68
2023-03-27T10:18:01.607Z,24.68
2023-03-27T10:18:11.913Z,24.68
2023-03-27T10:18:22.177Z,24.69
2023-03-27T10:18:32.419Z,24.68
2023-03-27T10:18:42.683Z,24.68
2023-03-27T10:18:52.915Z,24.67
2023-03-27T10:19:03.119Z,24.68
2023-03-27T10:19:13.294Z,24.67
2023-03-27T10:19:23.709Z,24.68
2023-03-27T10:19:33.968Z,24.77
2023-03-27T10:19:44.234Z,24.84
2023-03-27T10:23:35.201Z,25.28
2023-03-27T10:34:56.292Z,25.83
2023-03-27T10:35:39.604Z,25.91
2023-03-27T10:35:50.808Z,25.94
2023-03-27T10:36:01.084Z,25.98
2023-03-27T10:36:11.318Z,25.99
2023-03-27T10:36:21.574Z,25.99
2023-03-27T10:36:31.789Z,26.01
2023-03-27T10:36:42.078Z,26.01
2023-03-27T10:36:52.367Z,26.01
2023-03-27T10:37:02.623Z,25.99
2023-03-27T10:37:12.878Z,25.99
2023-03-27T10:37:23.126Z,25.99
2023-03-27T10:37:33.374Z,25.99
2023-03-27T10:37:50.474Z,25.99
2023-03-27T10:37:57.522Z,25.98
2023-03-27T10:38:04.405Z,25.99
2023-03-27T10:38:14.625Z,26.05
